Time;durP1;ratioP1;P1;durP2;ratioP2;P2;SDS_P1;SDS_P2;PMS_P1;PMS_P2;Temp;Humidity;BMP_temperature;BMP_pressure;BME280_temperature;BME280_humidity;BME280_pressure;Samples;Min_cycle;Max_cycle;Signal;HPM_P1;HPM_P2
2022/07/01 00:00:23;;;;;;;18.73;6.22;;;;;;;23.98;nan;100212.38;4954084;28;20057;-73
2022/07/01 00:02:48;;;;;;;12.35;6.65;;;;;;;23.93;nan;100220.59;4954026;29;20483;-72
2022/07/01 00:05:14;;;;;;;18.67;7.15;;;;;;;23.90;nan;100229.31;4947849;29;20086;-73
2022/07/01 00:07:39;;;;;;;10.10;6.68;;;;;;;23.86;nan;100231.06;4954436;29;20054;-72
2022/07/01 00:10:05;;;;;;;12.38;6.65;;;;;;;23.70;nan;100218.03;4953639;29;20078;-73
2022/07/01 00:12:31;;;;;;;19.65;6.95;;;;;;;23.67;nan;100217.91;4951126;29;20038;-72
2022/07/01 00:14:57;;;;;;;16.85;6.82;;;;;;;23.64;nan;100227.41;4951954;29;20039;-72
2022/07/01 00:17:22;;;;;;;21.17;7.35;;;;;;;23.51;nan;100212.19;4952567;29;20393;-73
2022/07/01 00:19:49;;;;;;;16.63;7.43;;;;;;;23.52;nan;100235.31;4952565;29;20126;-73
2022/07/01 00:22:15;;;;;;;14.52;6.80;;;;;;;23.40;nan;100219.00;4953428;28;20035;-72
2022/07/01 00:24:40;;;;;;;10.73;6.55;;;;;;;23.31;nan;100219.00;4952063;29;20136;-73
2022/07/01 00:27:06;;;;;;;14.80;6.18;;;;;;;23.18;nan;100214.53;4935200;29;20062;-73
2022/07/01 00:29:33;;;;;;;15.35;6.85;;;;;;;23.24;nan;100226.72;4950379;28;20134;-72
2022/07/01 00:31:58;;;;;;;16.23;8.05;;;;;;;23.10;nan;100226.88;4950458;29;20556;-72
2022/07/01 00:34:24;;;;;;;16.50;6.32;;;;;;;23.03;nan;100223.84;4949437;28;20050;-72
2022/07/01 00:36:50;;;;;;;10.85;7.07;;;;;;;22.95;nan;100225.38;4952825;29;20042;-73
2022/07/01 00:39:15;;;;;;;10.32;7.28;;;;;;;22.87;nan;100218.88;4951480;29;20094;-73
2022/07/01 00:41:40;;;;;;;17.98;6.90;;;;;;;22.87;nan;100237.69;4951649;28;20035;-73
2022/07/01 00:44:14;;;;;;;9.65;7.00;;;;;;;22.77;nan;100223.75;4954031;29;20035;-73
2022/07/01 00:46:40;;;;;;;13.75;7.00;;;;;;;22.75;nan;100229.44;4934871;29;20436;-73
2022/07/01 00:49:05;;;;;;;13.18;7.32;;;;;;;22.66;nan;100221.34;4947593;28;20036;-73
2022/07/01 00:51:31;;;;;;;14.35;7.82;;;;;;;22.62;nan;100222.25;4936604;29;20102;-73
2022/07/01 00:53:58;;;;;;;15.48;8.05;;;;;;;22.50;nan;100222.84;4952395;28;20035;-72
2022/07/01 00:56:24;;;;;;;10.93;7.65;;;;;;;22.51;nan;100221.75;4937230;29;20500;-72
2022/07/01 00:58:49;;;;;;;18.38;7.57;;;;;;;22.46;nan;100216.53;4951496;29;20035;-73
2022/07/01 01:01:15;;;;;;;14.82;7.47;;;;;;;22.44;nan;100214.16;4953079;29;20556;-73
2022/07/01 01:03:40;;;;;;;16.00;7.70;;;;;;;22.45;nan;100225.66;4953184;29;20035;-72
2022/07/01 01:06:06;;;;;;;17.55;7.68;;;;;;;22.35;nan;100213.31;4952185;29;20122;-73
2022/07/01 01:08:31;;;;;;;15.02;8.23;;;;;;;22.28;nan;100211.06;4949871;29;20453;-73
2022/07/01 01:10:57;;;;;;;13.88;8.02;;;;;;;22.34;nan;100218.97;4952850;29;20117;-71
2022/07/01 01:13:22;;;;;;;16.95;8.30;;;;;;;22.25;nan;100203.63;4940830;29;20038;-73
2022/07/01 01:15:48;;;;;;;18.60;7.90;;;;;;;22.25;nan;100205.53;4947179;29;20444;-72
2022/07/01 01:18:13;;;;;;;15.25;8.23;;;;;;;22.31;nan;100215.03;4951511;28;20071;-71
2022/07/01 01:20:39;;;;;;;12.95;8.02;;;;;;;22.21;nan;100210.72;4953675;29;20031;-71
2022/07/01 01:23:05;;;;;;;14.90;7.97;;;;;;;22.19;nan;100215.56;4953559;29;20074;-72
2022/07/01 01:25:31;;;;;;;12.90;8.40;;;;;;;22.16;nan;100221.53;4941589;29;20031;-72
2022/07/01 01:27:57;;;;;;;11.57;7.80;;;;;;;22.13;nan;100227.53;4950427;29;20075;-72
2022/07/01 01:30:22;;;;;;;10.55;8.23;;;;;;;22.05;nan;100221.03;4950349;29;20062;-72
2022/07/01 01:32:49;;;;;;;18.30;8.15;;;;;;;21.92;nan;100205.00;4953266;29;20051;-72
2022/07/01 01:35:15;;;;;;;13.43;8.50;;;;;;;22.04;nan;100222.09;4950227;29;20027;-71
2022/07/01 01:37:41;;;;;;;15.18;8.18;;;;;;;21.81;nan;100194.53;4947622;29;20127;-71
2022/07/01 01:40:07;;;;;;;13.73;8.30;;;;;;;21.92;nan;100218.41;4948070;28;20046;-72
2022/07/01 01:42:32;;;;;;;11.18;7.97;;;;;;;21.89;nan;100219.81;4956423;29;20059;-73
2022/07/01 01:44:58;;;;;;;12.15;8.38;;;;;;;21.83;nan;100221.78;4957148;29;20042;-72
2022/07/01 01:47:23;;;;;;;9.10;7.93;;;;;;;21.87;nan;100224.66;4954040;28;20032;-73
2022/07/01 01:49:49;;;;;;;12.43;8.45;;;;;;;21.82;nan;100222.13;4962607;29;20047;-72
2022/07/01 01:52:14;;;;;;;12.75;8.23;;;;;;;21.77;nan;100223.03;4961682;29;20019;-71
2022/07/01 01:54:40;;;;;;;11.20;8.32;;;;;;;21.85;nan;100235.69;4960701;29;20066;-72
2022/07/01 01:57:05;;;;;;;14.55;7.82;;;;;;;21.71;nan;100220.75;4958071;29;20039;-72
2022/07/01 01:59:31;;;;;;;15.52;7.97;;;;;;;21.82;nan;100238.19;4953959;29;20039;-72
2022/07/01 02:01:59;;;;;;;12.40;8.43;;;;;;;21.75;nan;100235.94;4956002;29;20147;-73
2022/07/01 02:04:25;;;;;;;12.90;8.30;;;;;;;21.78;nan;100246.03;4955190;29;20832;-73
2022/07/01 02:06:51;;;;;;;10.05;8.02;;;;;;;21.81;nan;100250.00;4955896;29;20171;-73
2022/07/01 02:09:17;;;;;;;13.73;9.00;;;;;;;21.80;nan;100248.44;4952923;29;20601;-74
2022/07/01 02:11:42;;;;;;;11.07;8.02;;;;;;;21.78;nan;100247.94;4938884;29;20047;-73
2022/07/01 02:14:07;;;;;;;14.95;8.13;;;;;;;21.74;nan;100249.63;4955080;29;20430;-72
2022/07/01 02:16:33;;;;;;;10.65;8.45;;;;;;;21.63;nan;100235.69;4953804;29;20031;-72
2022/07/01 02:18:58;;;;;;;12.10;8.65;;;;;;;21.63;nan;100241.81;4953092;29;20050;-73
2022/07/01 02:21:24;;;;;;;11.18;8.25;;;;;;;21.57;nan;100244.91;4952297;29;20524;-73
2022/07/01 02:23:52;;;;;;;11.32;8.27;;;;;;;21.62;nan;100255.53;4956832;29;20043;-72
2022/07/01 02:26:18;;;;;;;9.88;8.15;;;;;;;21.60;nan;100257.72;4937602;29;20030;-72
2022/07/01 02:28:44;;;;;;;15.75;8.35;;;;;;;21.51;nan;100246.13;4954800;29;20118;-73
2022/07/01 02:31:09;;;;;;;12.75;8.10;;;;;;;21.56;nan;100256.75;4954140;29;20163;-73
2022/07/01 02:33:35;;;;;;;14.27;8.70;;;;;;;21.51;nan;100251.50;4954104;29;20042;-72
2022/07/01 02:36:00;;;;;;;15.07;8.45;;;;;;;21.56;nan;100257.53;4954554;29;20040;-72
2022/07/01 02:38:26;;;;;;;12.85;8.20;;;;;;;21.53;nan;100257.34;4954941;29;20051;-73
2022/07/01 02:40:51;;;;;;;11.82;8.35;;;;;;;21.58;nan;100270.63;4953105;29;20059;-72
2022/07/01 02:43:17;;;;;;;12.43;8.70;;;;;;;21.32;nan;100230.19;4953450;29;20139;-72
2022/07/01 02:45:42;;;;;;;10.25;7.72;;;;;;;21.57;nan;100271.72;4952406;29;20131;-71
2022/07/01 02:48:08;;;;;;;13.05;8.10;;;;;;;21.56;nan;100276.28;4954360;29;20038;-73
2022/07/01 02:50:34;;;;;;;16.15;7.47;;;;;;;21.57;nan;100275.22;4956259;29;20038;-72
2022/07/01 02:53:00;;;;;;;13.02;8.88;;;;;;;21.45;nan;100259.66;4954228;29;20035;-73
2022/07/01 02:55:26;;;;;;;15.13;8.18;;;;;;;21.47;nan;100258.53;4958997;29;20785;-73
2022/07/01 02:57:52;;;;;;;12.57;8.55;;;;;;;21.49;nan;100264.41;4959229;29;20042;-73
2022/07/01 03:00:20;;;;;;;13.98;8.45;;;;;;;21.56;nan;100275.50;4957747;29;20047;-73
2022/07/01 03:02:45;;;;;;;11.38;8.45;;;;;;;21.56;nan;100286.22;4962125;29;20118;-72
2022/07/01 03:05:11;;;;;;;18.92;9.38;;;;;;;21.60;nan;100282.63;4958520;29;20027;-73
2022/07/01 03:07:37;;;;;;;12.10;7.63;;;;;;;21.58;nan;100294.75;4956417;29;20035;-72
2022/07/01 03:10:04;;;;;;;16.35;8.27;;;;;;;21.54;nan;100299.91;4963928;29;20106;-73
2022/07/01 03:12:30;;;;;;;12.10;8.88;;;;;;;21.52;nan;100299.41;4962310;29;20031;-74
2022/07/01 03:14:56;;;;;;;14.15;8.43;;;;;;;21.52;nan;100301.31;4962959;29;20086;-72
2022/07/01 03:17:23;;;;;;;9.75;7.55;;;;;;;21.47;nan;100294.16;4945785;29;20047;-72
2022/07/01 03:19:51;;;;;;;19.42;9.20;;;;;;;21.56;nan;100310.34;4957957;29;20039;-72
2022/07/01 03:22:17;;;;;;;15.90;8.13;;;;;;;21.56;nan;100308.44;4946628;29;20051;-71
2022/07/01 03:24:42;;;;;;;12.93;8.18;;;;;;;21.60;nan;100305.97;4945187;29;20039;-72
2022/07/01 03:27:09;;;;;;;15.40;7.88;;;;;;;21.56;nan;100305.75;4966864;29;20027;-71
2022/07/01 03:29:35;;;;;;;11.27;7.90;;;;;;;21.60;nan;100311.31;4949454;29;20039;-73
2022/07/01 03:32:00;;;;;;;14.18;8.20;;;;;;;21.59;nan;100310.50;4959874;29;20070;-74
2022/07/01 03:34:26;;;;;;;16.25;8.75;;;;;;;21.50;nan;100300.81;4964885;29;20042;-73
2022/07/01 03:36:51;;;;;;;15.38;8.52;;;;;;;21.61;nan;100318.25;4964561;29;20082;-73
2022/07/01 03:39:17;;;;;;;15.75;8.50;;;;;;;21.60;nan;100325.50;4961587;28;20056;-73
2022/07/01 03:41:42;;;;;;;11.50;8.02;;;;;;;21.54;nan;100318.66;4947437;29;20050;-73
2022/07/01 03:44:07;;;;;;;14.80;8.32;;;;;;;21.55;nan;100314.09;4946597;29;20035;-72
2022/07/01 03:46:35;;;;;;;12.63;8.05;;;;;;;21.58;nan;100329.59;4938947;29;20023;-73
2022/07/01 03:49:01;;;;;;;15.15;8.57;;;;;;;21.62;nan;100323.31;4944048;29;20398;-73
2022/07/01 03:51:26;;;;;;;11.57;7.57;;;;;;;21.50;nan;100306.16;4959592;29;20049;-73
2022/07/01 03:56:36;;;;;;;17.85;8.65;;;;;;;21.66;nan;100321.63;4959336;28;20509;-73
2022/07/01 03:59:01;;;;;;;28.42;8.57;;;;;;;21.56;nan;100295.03;4942663;29;20043;-75
2022/07/01 04:01:27;;;;;;;19.83;8.40;;;;;;;21.76;nan;100311.78;4949356;28;20040;-73
2022/07/01 04:03:52;;;;;;;14.07;8.27;;;;;;;21.69;nan;100311.38;4931968;29;20410;-74
2022/07/01 04:06:19;;;;;;;15.18;8.35;;;;;;;21.88;nan;100317.38;4931747;29;20083;-74
2022/07/01 04:08:47;;;;;;;15.50;8.18;;;;;;;21.91;nan;100313.31;4937175;29;20051;-73
2022/07/01 04:11:12;;;;;;;17.50;8.73;;;;;;;21.99;nan;100320.66;4942224;29;20040;-74
2022/07/01 04:13:39;;;;;;;11.60;8.20;;;;;;;22.05;nan;100320.25;4941074;29;20035;-74
2022/07/01 04:16:04;;;;;;;14.07;7.68;;;;;;;22.14;nan;100314.13;4942383;29;20032;-73
2022/07/01 04:18:30;;;;;;;16.02;7.80;;;;;;;22.10;nan;100300.56;4940964;29;20120;-71
2022/07/01 04:23:41;;;;;;;16.48;8.40;;;;;;;22.24;nan;100292.47;4939935;29;20036;-72
2022/07/01 04:26:06;;;;;;;20.98;8.23;;;;;;;22.39;nan;100299.34;4938763;29;20082;-71
2022/07/01 04:28:31;;;;;;;13.25;7.57;;;;;;;22.48;nan;100297.50;4937750;29;20066;-72
2022/07/01 04:30:57;;;;;;;12.98;8.18;;;;;;;22.58;nan;100307.19;4943879;29;20043;-73
2022/07/01 04:33:22;;;;;;;8.57;7.35;;;;;;;22.63;nan;100299.03;4930999;29;20097;-73
2022/07/01 04:35:48;;;;;;;12.02;7.65;;;;;;;22.75;nan;100307.28;4934783;29;20047;-73
2022/07/01 04:38:13;;;;;;;11.15;7.30;;;;;;;22.86;nan;100305.09;4929700;29;20455;-73
2022/07/01 04:40:39;;;;;;;11.40;8.02;;;;;;;22.87;nan;100290.59;4932468;29;20394;-72
2022/07/01 04:43:04;;;;;;;11.07;7.72;;;;;;;23.01;nan;100294.00;4930317;29;20036;-71
2022/07/01 04:45:30;;;;;;;15.77;7.80;;;;;;;23.17;nan;100298.94;4931933;29;20063;-72
2022/07/01 04:47:55;;;;;;;12.85;7.50;;;;;;;23.25;nan;100308.91;4935857;29;20067;-71
2022/07/01 04:50:21;;;;;;;15.52;7.47;;;;;;;23.32;nan;100309.22;4929474;29;20031;-72
2022/07/01 04:52:46;;;;;;;16.48;7.75;;;;;;;23.46;nan;100319.88;4935279;29;20561;-72
2022/07/01 04:55:11;;;;;;;16.38;8.23;;;;;;;23.46;nan;100309.13;4932009;29;20035;-72
2022/07/01 04:57:37;;;;;;;17.30;8.30;;;;;;;23.65;nan;100314.22;4934593;29;20060;-74
2022/07/01 05:00:03;;;;;;;16.15;7.10;;;;;;;23.53;nan;100282.56;4927837;29;20072;-73
2022/07/01 05:02:28;;;;;;;17.05;7.25;;;;;;;23.78;nan;100316.78;4932416;29;20070;-73
2022/07/01 05:04:54;;;;;;;11.65;7.63;;;;;;;23.81;nan;100307.28;4931542;29;20517;-71
2022/07/01 05:07:28;;;;;;;11.73;7.03;;;;;;;24.01;nan;100324.69;4934328;29;20107;-71
2022/07/01 05:09:58;;;;;;;13.02;7.47;;;;;;;24.12;nan;100322.47;4932170;29;20383;-71
2022/07/01 05:12:24;;;;;;;11.25;7.15;;;;;;;24.15;nan;100314.56;4931890;29;20054;-72
2022/07/01 05:14:50;;;;;;;13.30;7.18;;;;;;;24.28;nan;100314.69;4934557;29;20036;-72
2022/07/01 05:17:16;;;;;;;11.48;7.35;;;;;;;24.44;nan;100326.53;4937668;29;20063;-72
2022/07/01 05:22:25;;;;;;;15.60;7.90;;;;;;;24.63;nan;100318.91;4932780;29;20427;-73
2022/07/01 05:24:51;;;;;;;12.68;8.07;;;;;;;24.78;nan;100314.94;4938322;29;20037;-72
2022/07/01 05:27:16;;;;;;;12.05;7.63;;;;;;;24.80;nan;100315.38;4936674;29;20032;-72
2022/07/01 05:29:42;;;;;;;8.85;7.20;;;;;;;24.92;nan;100303.13;4937306;29;20040;-72
2022/07/01 05:32:07;;;;;;;11.82;7.82;;;;;;;25.10;nan;100326.19;4934823;29;20040;-73
2022/07/01 05:34:33;;;;;;;13.32;7.57;;;;;;;25.20;nan;100325.06;4931666;29;20035;-73
2022/07/01 05:36:58;;;;;;;12.30;7.68;;;;;;;25.27;nan;100319.97;4922628;29;20039;-73
2022/07/01 05:39:25;;;;;;;14.57;8.13;;;;;;;25.47;nan;100331.88;4953901;29;20095;-72
2022/07/01 05:41:50;;;;;;;15.55;7.70;;;;;;;25.58;nan;100324.22;4940462;29;20076;-73
2022/07/01 05:44:16;;;;;;;10.57;7.60;;;;;;;25.65;nan;100316.41;4956869;29;20043;-72
2022/07/01 05:46:42;;;;;;;10.10;7.72;;;;;;;25.76;nan;100319.47;4956826;29;20047;-73
2022/07/01 05:49:07;;;;;;;15.40;7.28;;;;;;;25.92;nan;100336.69;4957079;29;20406;-71
2022/07/01 05:51:33;;;;;;;18.10;7.32;;;;;;;26.06;nan;100329.09;4939098;29;20039;-71
2022/07/01 05:53:58;;;;;;;12.55;7.60;;;;;;;26.20;nan;100342.31;4953972;29;20039;-72
2022/07/01 05:56:25;;;;;;;16.23;7.63;;;;;;;26.28;nan;100340.66;4947219;29;20038;-72
2022/07/01 05:58:51;;;;;;;15.13;7.22;;;;;;;26.36;nan;100331.69;4954747;29;20035;-73
2022/07/01 06:01:17;;;;;;;13.48;7.40;;;;;;;26.41;nan;100326.09;4956871;29;20047;-72
2022/07/01 06:03:42;;;;;;;13.00;7.43;;;;;;;26.60;nan;100335.59;4950344;29;20498;-73
2022/07/01 06:06:08;;;;;;;14.43;7.70;;;;;;;26.76;nan;100339.22;4937510;29;20062;-71
2022/07/01 06:08:33;;;;;;;16.88;7.60;;;;;;;26.82;nan;100351.41;4956087;29;20145;-72
2022/07/01 06:10:59;;;;;;;11.88;6.80;;;;;;;26.93;nan;100343.63;4954858;29;20035;-73
2022/07/01 06:13:24;;;;;;;13.75;7.32;;;;;;;27.03;nan;100345.09;4948289;29;20553;-74
2022/07/01 06:15:49;;;;;;;11.55;6.78;;;;;;;27.14;nan;100346.25;4953813;29;20039;-73
2022/07/01 06:18:15;;;;;;;10.13;7.32;;;;;;;27.21;nan;100349.19;4955777;29;20043;-72
2022/07/01 06:20:40;;;;;;;13.63;7.07;;;;;;;27.25;nan;100335.78;4954144;29;20031;-73
2022/07/01 06:23:06;;;;;;;16.92;6.75;;;;;;;27.22;nan;100321.03;4940522;29;20043;-77
2022/07/01 06:25:31;;;;;;;14.13;6.75;;;;;;;27.53;nan;100352.88;4957646;29;20470;-74
2022/07/01 06:27:57;;;;;;;13.30;6.93;;;;;;;27.68;nan;100354.13;4956794;28;20493;-74
2022/07/01 06:30:22;;;;;;;9.65;7.00;;;;;;;27.78;nan;100348.22;4954610;29;20150;-73
2022/07/01 06:32:47;;;;;;;14.13;7.03;;;;;;;27.90;nan;100350.13;4955656;29;20057;-72
2022/07/01 06:35:13;;;;;;;14.20;7.05;;;;;;;27.96;nan;100350.69;4954999;29;20035;-72
2022/07/01 06:37:38;;;;;;;12.35;6.65;;;;;;;28.00;nan;100352.34;4951579;29;20110;-72
2022/07/01 06:40:05;;;;;;;15.95;7.35;;;;;;;28.07;nan;100346.34;4957206;29;20043;-73
2022/07/01 06:42:31;;;;;;;19.58;7.60;;;;;;;28.19;nan;100362.53;4956390;29;20023;-72
2022/07/01 06:44:56;;;;;;;11.95;7.00;;;;;;;28.16;nan;100347.00;4954599;29;20055;-72
2022/07/01 06:47:22;;;;;;;10.95;6.38;;;;;;;28.27;nan;100352.69;4956807;29;20038;-72
2022/07/01 06:49:48;;;;;;;13.13;6.90;;;;;;;28.39;nan;100347.22;4939311;29;20043;-73
2022/07/01 06:52:13;;;;;;;11.20;6.35;;;;;;;28.46;nan;100352.06;4955790;29;20118;-72
2022/07/01 06:54:39;;;;;;;11.30;6.55;;;;;;;28.57;nan;100357.78;4940210;29;20457;-72
2022/07/01 06:57:05;;;;;;;9.52;6.40;;;;;;;28.49;nan;100342.47;4953949;29;20028;-74
2022/07/01 06:59:31;;;;;;;13.25;6.50;;;;;;;28.68;nan;100363.47;4957828;29;20386;-72
2022/07/01 07:01:57;;;;;;;12.10;5.82;;;;;;;28.78;nan;100361.03;4954302;29;20031;-73
2022/07/01 07:04:22;;;;;;;16.15;6.53;;;;;;;28.78;nan;100357.50;4938170;29;20470;-72
2022/07/01 07:06:48;;;;;;;14.07;6.18;;;;;;;28.82;nan;100361.09;4937426;29;20090;-72
2022/07/01 07:09:13;;;;;;;17.98;6.65;;;;;;;28.90;nan;100359.34;4935423;29;20478;-72
2022/07/01 07:11:38;;;;;;;9.93;6.78;;;;;;;28.95;nan;100357.19;4955387;28;20050;-71
2022/07/01 07:14:04;;;;;;;13.63;6.70;;;;;;;28.87;nan;100327.53;4939350;29;20441;-72
2022/07/01 07:16:29;;;;;;;11.05;6.10;;;;;;;29.19;nan;100350.03;4956037;29;20377;-72
2022/07/01 07:18:55;;;;;;;10.02;6.50;;;;;;;29.25;nan;100356.75;4951829;29;20039;-73
2022/07/01 07:21:21;;;;;;;12.95;6.25;;;;;;;29.26;nan;100353.69;4955108;29;20529;-72
2022/07/01 07:23:47;;;;;;;15.02;6.45;;;;;;;29.38;nan;100357.41;4956416;29;20039;-72
2022/07/01 07:26:13;;;;;;;15.68;6.68;;;;;;;29.47;nan;100364.25;4949396;29;20045;-73
2022/07/01 07:28:38;;;;;;;12.30;5.88;;;;;;;29.36;nan;100333.38;4949721;29;20027;-71
2022/07/01 07:31:04;;;;;;;13.45;5.68;;;;;;;29.66;nan;100360.78;4950313;29;20039;-72
2022/07/01 07:33:30;;;;;;;10.57;6.18;;;;;;;29.76;nan;100358.66;4950620;29;20387;-73
2022/07/01 07:35:56;;;;;;;12.02;6.50;;;;;;;29.83;nan;100356.09;4954023;29;20114;-71
2022/07/01 07:38:22;;;;;;;5.95;5.28;;;;;;;29.90;nan;100353.50;4955368;28;20087;-71
2022/07/01 07:40:47;;;;;;;10.55;5.88;;;;;;;30.00;nan;100355.69;4950190;29;20043;-74
2022/07/01 07:43:13;;;;;;;8.95;5.95;;;;;;;30.15;nan;100359.44;4955014;29;20027;-72
2022/07/01 07:45:38;;;;;;;10.40;5.85;;;;;;;30.19;nan;100348.66;4937141;29;20042;-71
2022/07/01 07:48:05;;;;;;;10.60;5.75;;;;;;;30.31;nan;100348.50;4953794;29;20031;-73
2022/07/01 07:50:31;;;;;;;9.77;5.82;;;;;;;30.39;nan;100358.38;4952234;29;20031;-72
2022/07/01 07:52:57;;;;;;;7.90;5.80;;;;;;;30.49;nan;100349.63;4955086;29;20042;-72
2022/07/01 07:55:22;;;;;;;9.40;5.65;;;;;;;30.60;nan;100349.81;4954477;29;20034;-72
2022/07/01 07:57:48;;;;;;;10.80;5.80;;;;;;;30.65;nan;100338.66;4954820;29;20038;-72
2022/07/01 08:00:13;;;;;;;12.45;5.97;;;;;;;30.66;nan;100329.34;4954781;29;20039;-73
2022/07/01 08:02:40;;;;;;;11.18;5.70;;;;;;;30.90;nan;100351.91;4951367;29;20035;-72
2022/07/01 08:05:07;;;;;;;9.75;5.22;;;;;;;30.98;nan;100350.84;4936384;29;20189;-73
2022/07/01 08:07:37;;;;;;;8.38;5.18;;;;;;;30.82;nan;100315.63;4944959;29;20035;-72
2022/07/01 08:10:04;;;;;;;9.55;5.82;;;;;;;30.98;nan;100329.09;4954618;29;20031;-72
2022/07/01 08:12:30;;;;;;;12.88;5.53;;;;;;;31.12;nan;100345.63;4957556;29;20062;-72
2022/07/01 08:14:55;;;;;;;11.27;4.88;;;;;;;31.20;nan;100351.97;4960084;29;20048;-71
2022/07/01 08:17:20;;;;;;;9.27;5.90;;;;;;;31.23;nan;100334.13;4953240;29;20126;-73
2022/07/01 08:19:46;;;;;;;8.35;5.15;;;;;;;31.35;nan;100347.53;4963371;29;20105;-72
2022/07/01 08:22:11;;;;;;;11.60;4.13;;;;;;;31.39;nan;100351.09;4967280;29;20062;-72
2022/07/01 08:24:37;;;;;;;6.50;3.78;;;;;;;31.49;nan;100342.31;4965495;29;20032;-71
2022/07/01 08:27:02;;;;;;;6.03;4.00;;;;;;;31.55;nan;100348.19;4954503;29;20035;-71
2022/07/01 08:29:28;;;;;;;8.85;3.75;;;;;;;31.60;nan;100345.16;4955372;29;20515;-72
2022/07/01 08:31:53;;;;;;;6.53;4.03;;;;;;;31.76;nan;100355.88;4953182;29;20046;-72
2022/07/01 08:34:18;;;;;;;7.25;4.00;;;;;;;31.82;nan;100353.59;4956133;29;20035;-71
2022/07/01 08:36:44;;;;;;;7.85;3.92;;;;;;;31.86;nan;100349.75;4965583;29;20039;-71
2022/07/01 08:39:09;;;;;;;10.07;4.45;;;;;;;31.88;nan;100344.72;4966544;28;20038;-71
2022/07/01 08:41:35;;;;;;;7.82;3.90;;;;;;;32.03;nan;100353.09;4962389;29;20039;-72
2022/07/01 08:44:00;;;;;;;5.90;4.10;;;;;;;32.07;nan;100345.75;4958660;29;20158;-70
2022/07/01 08:46:26;;;;;;;10.70;3.63;;;;;;;32.18;nan;100347.44;4967851;29;20038;-73
2022/07/01 08:48:53;;;;;;;6.43;3.83;;;;;;;32.21;nan;100333.06;4969004;29;20066;-73
2022/07/01 08:51:18;;;;;;;6.95;4.05;;;;;;;32.27;nan;100338.16;4969168;28;20027;-72
2022/07/01 08:53:44;;;;;;;9.57;4.45;;;;;;;32.34;nan;100321.88;4964221;29;20091;-72
2022/07/01 08:58:54;;;;;;;6.60;4.53;;;;;;;32.41;nan;100311.84;4960886;29;20031;-71
2022/07/01 09:01:24;;;;;;;8.10;4.80;;;;;;;32.51;nan;100317.78;4965134;29;20047;-70
2022/07/01 09:03:52;;;;;;;6.40;4.22;;;;;;;32.59;nan;100324.88;4965757;29;20046;-72
2022/07/01 09:06:22;;;;;;;4.60;3.93;;;;;;;32.63;nan;100321.00;4964858;29;20091;-72
2022/07/01 09:08:48;;;;;;;7.22;4.32;;;;;;;32.67;nan;100318.31;4949024;29;20377;-75
2022/07/01 09:11:25;;;;;;;11.95;4.07;;;;;;;32.74;nan;100318.38;4964456;29;20058;-75
2022/07/01 09:14:06;;;;;;;6.10;3.67;;;;;;;32.83;nan;100321.56;4967313;29;20118;-73
2022/07/01 09:16:43;;;;;;;4.53;3.78;;;;;;;32.88;nan;100316.94;4960593;29;20018;-73
2022/07/01 09:19:09;;;;;;;6.00;3.65;;;;;;;32.89;nan;100307.56;4969121;29;20114;-73
2022/07/01 09:21:35;;;;;;;8.27;3.90;;;;;;;32.99;nan;100304.91;4969855;29;20054;-72
2022/07/01 09:24:27;;;;;;;8.55;3.50;;;;;;;33.18;nan;100303.88;4967310;29;20047;-75
2022/07/01 09:27:09;;;;;;;9.30;3.90;;;;;;;33.27;nan;100309.00;4938808;29;20487;-73
2022/07/01 09:29:42;;;;;;;12.20;4.43;;;;;;;33.22;nan;100295.72;4954382;29;20023;-73
2022/07/01 09:32:11;;;;;;;5.20;4.03;;;;;;;33.36;nan;100314.13;4954217;29;20035;-72
2022/07/01 09:34:46;;;;;;;6.57;4.00;;;;;;;33.42;nan;100320.78;4953482;29;20118;-72
2022/07/01 09:37:16;;;;;;;5.80;4.15;;;;;;;33.30;nan;100293.81;4950384;29;20453;-72
2022/07/01 09:39:48;;;;;;;5.03;3.67;;;;;;;33.45;nan;100306.34;4954183;29;20043;-74
2022/07/01 09:42:17;;;;;;;7.82;4.30;;;;;;;33.52;nan;100311.06;4953112;28;20057;-74
2022/07/01 09:44:52;;;;;;;5.53;3.88;;;;;;;33.63;nan;100318.16;4954193;29;20046;-73
2022/07/01 09:47:17;;;;;;;7.50;3.90;;;;;;;33.67;nan;100297.13;4960838;29;20043;-73
2022/07/01 09:49:43;;;;;;;8.55;4.28;;;;;;;33.65;nan;100283.06;4966099;29;20078;-72
2022/07/01 09:52:09;;;;;;;4.00;3.70;;;;;;;33.75;nan;100300.66;4960502;29;20023;-74
2022/07/01 09:54:36;;;;;;;5.90;4.00;;;;;;;33.78;nan;100302.63;4964550;29;20046;-73
2022/07/01 09:57:02;;;;;;;6.07;4.03;;;;;;;33.76;nan;100290.50;4941125;29;20061;-73
2022/07/01 09:59:28;;;;;;;7.30;4.00;;;;;;;33.87;nan;100303.03;4962385;29;20031;-73
2022/07/01 10:01:53;;;;;;;4.53;3.55;;;;;;;33.90;nan;100296.00;4951377;28;20425;-73
2022/07/01 10:04:19;;;;;;;5.03;4.22;;;;;;;34.01;nan;100298.78;4955163;29;20039;-73
2022/07/01 10:06:53;;;;;;;4.20;3.80;;;;;;;34.05;nan;100288.66;4955988;29;20034;-73
2022/07/01 10:09:52;;;;;;;8.95;4.25;;;;;;;34.19;nan;100302.34;4954000;29;20063;-74
2022/07/01 10:12:31;;;;;;;7.47;4.40;;;;;;;34.23;nan;100299.63;4953167;29;20042;-74
2022/07/01 10:14:59;;;;;;;8.20;4.22;;;;;;;34.38;nan;100314.09;4955283;29;20035;-75
2022/07/01 10:17:29;;;;;;;7.35;4.32;;;;;;;34.44;nan;100294.19;4954479;29;20075;-73
2022/07/01 10:19:56;;;;;;;6.43;4.13;;;;;;;34.45;nan;100294.94;4954895;29;20043;-71
2022/07/01 10:22:28;;;;;;;7.70;4.35;;;;;;;34.49;nan;100291.06;4931253;29;20036;-71
2022/07/01 10:24:53;;;;;;;5.07;3.78;;;;;;;34.48;nan;100284.03;4954969;29;20039;-72
2022/07/01 10:27:24;;;;;;;6.18;4.07;;;;;;;34.59;nan;100291.44;4922629;29;20031;-71
2022/07/01 10:30:13;;;;;;;7.65;4.22;;;;;;;34.57;nan;100274.63;4953583;29;20035;-72
2022/07/01 10:32:59;;;;;;;10.98;4.10;;;;;;;34.73;nan;100286.00;4953260;28;20374;-70
2022/07/01 10:35:24;;;;;;;10.23;4.15;;;;;;;34.73;nan;100275.03;4951680;29;20095;-72
2022/07/01 10:37:57;;;;;;;11.13;5.13;;;;;;;34.78;nan;100269.19;4931747;29;20043;-72
2022/07/01 10:40:47;;;;;;;9.55;4.38;;;;;;;34.85;nan;100284.81;4952025;29;20039;-71
2022/07/01 10:43:31;;;;;;;6.95;3.72;;;;;;;34.84;nan;100278.56;4950507;29;20394;-71
2022/07/01 10:45:56;;;;;;;8.73;4.10;;;;;;;34.95;nan;100275.78;4949542;29;20067;-70
2022/07/01 10:48:24;;;;;;;6.05;3.90;;;;;;;34.96;nan;100266.41;4952115;29;20521;-71
2022/07/01 10:50:51;;;;;;;5.88;4.00;;;;;;;35.02;nan;100261.31;4952686;29;20039;-71
2022/07/01 10:53:17;;;;;;;8.05;4.10;;;;;;;35.05;nan;100249.56;4936392;29;20067;-72
2022/07/01 10:55:49;;;;;;;13.05;4.20;;;;;;;35.01;nan;100229.63;4954116;29;20486;-73
2022/07/01 10:58:18;;;;;;;8.60;3.97;;;;;;;35.29;nan;100256.94;4938081;29;20047;-73
2022/07/01 11:00:46;;;;;;;8.32;4.43;;;;;;;35.34;nan;100253.00;4954915;29;20478;-72
2022/07/01 11:03:15;;;;;;;5.60;3.92;;;;;;;35.39;nan;100255.34;4949260;29;20514;-71
2022/07/01 11:05:43;;;;;;;8.65;4.20;;;;;;;35.42;nan;100240.09;4952514;29;20098;-72
2022/07/01 11:08:09;;;;;;;7.27;4.27;;;;;;;35.43;nan;100238.91;4950544;29;20058;-71
2022/07/01 11:10:35;;;;;;;4.65;3.90;;;;;;;35.56;nan;100240.00;4953240;29;20042;-70
2022/07/01 11:13:02;;;;;;;9.98;4.13;;;;;;;35.57;nan;100225.13;4937166;29;20118;-73
2022/07/01 11:15:31;;;;;;;7.22;4.28;;;;;;;35.61;nan;100228.66;4951340;29;20065;-70
2022/07/01 11:17:59;;;;;;;10.13;4.22;;;;;;;35.70;nan;100226.25;4952692;29;20082;-70
2022/07/01 11:20:27;;;;;;;10.80;3.95;;;;;;;35.73;nan;100230.94;4951747;29;20035;-72
2022/07/01 11:22:52;;;;;;;6.85;4.25;;;;;;;35.73;nan;100213.72;4947157;29;20047;-70
2022/07/01 11:25:19;;;;;;;5.78;3.80;;;;;;;35.75;nan;100227.81;4953041;29;20031;-71
2022/07/01 11:27:47;;;;;;;7.15;4.13;;;;;;;35.71;nan;100214.13;4951644;29;20063;-71
2022/07/01 11:30:14;;;;;;;6.90;4.22;;;;;;;35.70;nan;100218.03;4953075;29;20038;-73
2022/07/01 11:32:42;;;;;;;6.55;3.80;;;;;;;35.82;nan;100216.78;4935915;29;20041;-71
2022/07/01 11:40:51;;;;;;;5.70;4.28;;;;;;;36.03;nan;100188.44;4952455;29;20413;-74
2022/07/01 11:43:22;;;;;;;7.38;4.25;;;;;;;36.11;nan;100192.72;4951784;29;20043;-71
2022/07/01 11:45:48;;;;;;;6.30;4.03;;;;;;;36.10;nan;100188.41;4950997;29;20050;-72
2022/07/01 11:48:28;;;;;;;11.32;4.32;;;;;;;36.25;nan;100199.25;4952293;29;20039;-71
2022/07/01 11:50:53;;;;;;;5.20;4.07;;;;;;;36.27;nan;100205.09;4931596;29;20035;-72